Time;durP1;ratioP1;P1;durP2;ratioP2;P2;SDS_P1;SDS_P2;PMS_P1;PMS_P2;Temp;Humidity;BMP_temperature;BMP_pressure;BME280_temperature;BME280_humidity;BME280_pressure;Samples;Min_cycle;Max_cycle;Signal;HPM_P1;HPM_P2
2022/11/18 00:01:21;;;;;;;14.40;9.90;;;7.50;99.90;;;;;;5000206;28;20086;-71
2022/11/18 00:03:47;;;;;;;;;;;7.50;99.90;;;;;;4997011;28;20022;-70
2022/11/18 00:06:16;;;;;;;17.23;9.77;;;7.60;99.90;;;;;;4997667;28;19917;-69
2022/11/18 00:08:42;;;;;;;27.08;11.18;;;7.60;99.90;;;;;;4999422;28;20049;-72
2022/11/18 00:11:10;;;;;;;17.65;9.98;;;7.60;99.90;;;;;;5004087;28;20025;-70
2022/11/18 00:16:21;;;;;;;34.45;11.80;;;7.70;99.90;;;;;;4997536;28;20488;-70
2022/11/18 00:18:47;;;;;;;23.73;10.93;;;7.70;99.90;;;;;;4995845;28;20022;-70
2022/11/18 00:21:13;;;;;;;14.30;10.30;;;7.70;99.90;;;;;;5003484;28;20123;-73
2022/11/18 00:23:39;;;;;;;35.08;11.45;;;7.80;99.90;;;;;;4993760;28;20046;-71
2022/11/18 00:26:08;;;;;;;24.92;11.82;;;7.80;99.90;;;;;;4995142;28;20030;-73
2022/11/18 00:28:34;;;;;;;17.73;10.10;;;7.80;99.90;;;;;;4994465;28;20034;-70
2022/11/18 00:31:04;;;;;;;21.17;11.85;;;7.80;99.90;;;;;;4997025;28;20366;-70
2022/11/18 00:33:31;;;;;;;14.18;10.82;;;7.80;99.90;;;;;;4998366;28;20049;-71
2022/11/18 00:35:57;;;;;;;18.08;10.98;;;7.80;99.90;;;;;;4996667;28;20031;-70
2022/11/18 00:38:24;;;;;;;19.27;11.68;;;7.80;99.90;;;;;;4998247;28;20060;-69
2022/11/18 00:40:59;;;;;;;18.88;12.23;;;7.80;99.90;;;;;;4996485;28;20088;-71
2022/11/18 00:43:25;;;;;;;31.35;12.23;;;7.80;99.90;;;;;;4998052;28;20033;-70
2022/11/18 00:45:50;;;;;;;22.13;11.68;;;7.80;99.90;;;;;;4999419;28;20026;-69
2022/11/18 00:48:20;;;;;;;36.85;12.85;;;7.80;99.90;;;;;;4996616;28;20038;-70
2022/11/18 00:50:49;;;;;;;19.08;11.45;;;7.90;99.90;;;;;;4996657;28;20046;-73
2022/11/18 00:53:16;;;;;;;20.55;12.35;;;7.80;99.90;;;;;;4996675;28;20030;-69
2022/11/18 00:55:42;;;;;;;22.20;12.80;;;7.80;99.90;;;;;;5001286;28;20041;-73
2022/11/18 00:58:09;;;;;;;56.38;14.25;;;7.90;99.90;;;;;;5002349;28;20026;-72
2022/11/18 01:00:34;;;;;;;75.47;14.30;;;7.90;99.90;;;;;;4994388;28;20485;-73
2022/11/18 01:03:01;;;;;;;17.77;11.98;;;7.90;99.90;;;;;;5001832;28;20061;-74
2022/11/18 01:05:27;;;;;;;47.95;12.90;;;7.90;99.90;;;;;;5001245;28;20401;-70
2022/11/18 01:07:53;;;;;;;24.08;12.55;;;7.90;99.90;;;;;;4996853;28;20041;-72
2022/11/18 01:10:18;;;;;;;20.38;13.02;;;7.90;99.90;;;;;;4998510;28;20030;-73
2022/11/18 01:15:28;;;;;;;24.05;13.10;;;7.90;99.90;;;;;;4977321;28;20065;-69
2022/11/18 01:17:54;;;;;;;46.67;15.40;;;7.90;99.90;;;;;;4976214;28;21465;-70
2022/11/18 01:20:19;;;;;;;95.75;19.05;;;7.90;99.90;;;;;;4981819;28;20038;-70
2022/11/18 01:22:45;;;;;;;50.38;21.30;;;7.90;99.90;;;;;;4977815;28;20046;-74
2022/11/18 01:25:11;;;;;;;26.05;14.80;;;7.90;99.90;;;;;;4978881;28;20029;-69
2022/11/18 01:27:36;;;;;;;21.25;13.70;;;7.90;99.90;;;;;;4980307;28;20030;-70
2022/11/18 01:30:02;;;;;;;18.58;13.15;;;8.00;99.90;;;;;;4978884;28;20019;-70
2022/11/18 01:32:28;;;;;;;26.23;13.23;;;7.90;99.90;;;;;;4974635;28;20042;-70
2022/11/18 01:34:54;;;;;;;70.93;17.08;;;7.90;99.90;;;;;;4976108;28;20034;-71
2022/11/18 01:37:19;;;;;;;27.15;14.30;;;8.00;99.90;;;;;;4983053;28;20660;-70
2022/11/18 01:39:45;;;;;;;22.75;14.00;;;7.90;99.90;;;;;;4978849;28;20050;-69
2022/11/18 01:42:16;;;;;;;23.23;13.27;;;8.00;99.90;;;;;;4979771;28;20031;-69
2022/11/18 01:45:08;;;;;;;27.45;13.07;;;7.90;99.90;;;;;;4974429;28;20047;-74
2022/11/18 01:47:52;;;;;;;35.17;14.20;;;7.90;99.90;;;;;;4977701;28;20042;-69
2022/11/18 01:50:19;;;;;;;42.80;14.05;;;7.90;99.90;;;;;;4979041;28;20057;-72
2022/11/18 01:52:46;;;;;;;40.00;13.32;;;7.80;99.90;;;;;;4982301;28;20061;-70
2022/11/18 01:55:18;;;;;;;22.58;12.40;;;7.80;99.90;;;;;;4976857;28;20138;-69
2022/11/18 01:57:46;;;;;;;34.13;13.95;;;7.80;99.90;;;;;;4978770;28;20142;-69
2022/11/18 02:00:13;;;;;;;24.98;12.75;;;7.80;99.90;;;;;;4980052;28;20042;-70
2022/11/18 02:02:38;;;;;;;22.20;13.77;;;7.80;99.90;;;;;;4982987;28;20113;-70
2022/11/18 02:05:07;;;;;;;16.92;13.15;;;7.90;99.90;;;;;;4982140;28;20122;-70
2022/11/18 02:07:36;;;;;;;23.27;14.32;;;7.90;99.90;;;;;;4980283;28;20034;-72
2022/11/18 02:10:04;;;;;;;17.80;12.10;;;7.90;99.90;;;;;;4979983;28;20054;-71
2022/11/18 02:12:30;;;;;;;18.35;12.27;;;7.90;99.90;;;;;;4981296;28;20045;-73
2022/11/18 02:14:56;;;;;;;48.50;15.35;;;7.90;99.90;;;;;;4979172;28;20084;-73
2022/11/18 02:17:27;;;;;;;76.85;15.38;;;7.90;99.90;;;;;;4983227;28;20046;-70
2022/11/18 02:20:27;;;;;;;28.85;13.43;;;7.90;99.90;;;;;;4982373;28;20046;-69
2022/11/18 02:23:12;;;;;;;26.38;14.10;;;7.90;99.90;;;;;;4980515;28;20077;-71
2022/11/18 02:26:16;;;;;;;20.23;13.80;;;7.90;99.90;;;;;;4982362;28;20042;-70
2022/11/18 02:29:07;;;;;;;34.60;13.25;;;7.90;99.90;;;;;;4980767;28;20818;-69
2022/11/18 02:31:39;;;;;;;32.25;14.02;;;7.90;99.90;;;;;;4979905;28;20030;-70
2022/11/18 02:34:20;;;;;;;22.77;13.93;;;7.90;99.90;;;;;;4984284;28;20038;-71
2022/11/18 02:37:06;;;;;;;30.58;15.50;;;7.90;99.90;;;;;;4980651;28;20038;-72
2022/11/18 02:39:41;;;;;;;91.50;19.65;;;8.00;99.90;;;;;;4978419;28;20034;-69
2022/11/18 02:42:11;;;;;;;119.03;24.75;;;7.90;99.90;;;;;;4981597;28;20030;-70
2022/11/18 02:44:39;;;;;;;197.93;37.47;;;8.00;99.90;;;;;;4979593;28;20042;-69
2022/11/18 02:47:09;;;;;;;138.88;29.73;;;8.00;99.90;;;;;;4978829;28;20073;-70
2022/11/18 02:49:48;;;;;;;120.28;23.75;;;8.00;99.90;;;;;;4981821;28;20038;-73
2022/11/18 02:52:15;;;;;;;85.35;20.95;;;8.00;99.90;;;;;;4984238;28;20030;-69
2022/11/18 02:54:43;;;;;;;94.45;19.38;;;8.00;99.90;;;;;;4983046;28;20039;-74
2022/11/18 02:57:10;;;;;;;61.40;19.20;;;8.00;99.90;;;;;;4980265;28;20054;-74
2022/11/18 02:59:35;;;;;;;86.13;19.75;;;8.00;99.90;;;;;;4978953;28;20121;-73
2022/11/18 03:02:01;;;;;;;77.78;27.48;;;8.00;99.90;;;;;;4983539;28;20460;-70
2022/11/18 03:04:27;;;;;;;100.80;24.38;;;8.00;99.90;;;;;;4978949;28;20030;-70
2022/11/18 03:07:29;;;;;;;183.82;33.22;;;8.00;99.90;;;;;;4981877;28;20459;-70
2022/11/18 03:09:57;;;;;;;54.53;17.05;;;8.00;99.90;;;;;;4961691;28;20050;-70
2022/11/18 03:13:02;;;;;;;121.57;24.65;;;8.00;99.90;;;;;;4977854;28;20033;-71
2022/11/18 03:15:41;;;;;;;98.50;23.13;;;8.00;99.90;;;;;;4980297;28;20042;-73
2022/11/18 03:18:30;;;;;;;84.10;20.83;;;8.00;99.90;;;;;;4979081;28;20039;-70
2022/11/18 03:21:09;;;;;;;76.60;19.38;;;8.00;99.90;;;;;;4976160;28;20127;-72
2022/11/18 03:23:40;;;;;;;98.25;19.08;;;8.00;99.90;;;;;;4979254;28;20039;-71
2022/11/18 03:26:13;;;;;;;;;;;8.00;99.90;;;;;;4980146;28;20084;-70
2022/11/18 03:28:44;;;;;;;57.40;15.68;;;8.00;99.90;;;;;;4978498;28;19910;-73
2022/11/18 03:31:18;;;;;;;100.75;19.10;;;8.00;99.90;;;;;;4982086;28;20019;-70
2022/11/18 03:33:51;;;;;;;38.55;16.65;;;8.00;99.90;;;;;;4976270;28;20042;-70
2022/11/18 03:36:21;;;;;;;58.50;20.23;;;8.00;99.90;;;;;;4981880;28;20026;-70
2022/11/18 03:38:51;;;;;;;140.93;30.10;;;8.00;99.90;;;;;;4980932;28;20374;-70
2022/11/18 03:41:20;;;;;;;128.60;23.33;;;8.00;99.90;;;;;;4979414;28;20177;-70
2022/11/18 03:43:55;;;;;;;97.93;19.65;;;8.00;99.90;;;;;;4979171;28;20034;-70
2022/11/18 03:46:33;;;;;;;43.17;23.00;;;8.00;99.90;;;;;;4981615;28;20045;-70
2022/11/18 03:48:59;;;;;;;113.15;23.08;;;8.00;99.90;;;;;;4981734;28;20081;-71
2022/11/18 03:51:35;;;;;;;117.30;23.33;;;8.00;99.90;;;;;;4975092;28;20045;-73
2022/11/18 03:54:32;;;;;;;41.50;19.52;;;8.00;99.90;;;;;;4980662;28;20042;-71
2022/11/18 03:57:08;;;;;;;45.15;17.65;;;8.00;99.90;;;;;;4966350;28;20031;-71
2022/11/18 03:59:45;;;;;;;69.75;20.08;;;8.00;99.90;;;;;;4990563;28;20049;-70
2022/11/18 04:02:19;;;;;;;89.38;20.80;;;8.00;99.90;;;;;;4997286;28;20081;-70
2022/11/18 04:04:48;;;;;;;107.03;24.23;;;8.00;99.90;;;;;;4996057;28;20092;-71
2022/11/18 04:07:32;;;;;;;64.30;18.80;;;7.90;99.90;;;;;;5001497;28;20029;-71
2022/11/18 04:10:01;;;;;;;55.95;16.67;;;8.00;99.90;;;;;;5002734;28;20041;-71
2022/11/18 04:12:32;;;;;;;52.53;15.65;;;8.00;99.90;;;;;;4977724;28;20039;-70
2022/11/18 04:14:58;;;;;;;63.53;16.07;;;8.00;99.90;;;;;;4979093;28;20117;-70
2022/11/18 04:17:27;;;;;;;25.67;13.95;;;8.00;99.90;;;;;;4978765;28;20034;-69
2022/11/18 04:19:53;;;;;;;67.07;15.48;;;8.00;99.90;;;;;;4978846;28;20096;-74
2022/11/18 04:22:19;;;;;;;20.27;13.15;;;8.00;99.90;;;;;;4981074;28;20034;-74
2022/11/18 04:24:44;;;;;;;65.57;16.33;;;8.00;99.90;;;;;;4981476;28;20046;-70
2022/11/18 04:27:10;;;;;;;34.90;15.52;;;8.00;99.90;;;;;;4976091;28;20122;-70
2022/11/18 04:29:36;;;;;;;41.08;14.93;;;8.00;99.90;;;;;;4976026;28;20035;-70
2022/11/18 04:32:03;;;;;;;41.88;16.00;;;8.00;99.90;;;;;;4983007;28;20065;-72
2022/11/18 04:34:29;;;;;;;38.72;15.50;;;8.00;99.90;;;;;;4976550;28;20023;-69
2022/11/18 04:36:55;;;;;;;40.55;14.85;;;8.00;99.90;;;;;;4978087;28;20210;-71
2022/11/18 04:39:21;;;;;;;26.10;13.68;;;8.00;99.90;;;;;;4978206;28;20034;-70
2022/11/18 04:41:55;;;;;;;99.95;18.25;;;8.00;99.90;;;;;;4976117;28;20035;-70
2022/11/18 04:44:29;;;;;;;52.70;15.05;;;8.00;99.90;;;;;;4978909;28;20030;-69
2022/11/18 04:46:56;;;;;;;69.50;16.52;;;8.00;99.90;;;;;;4978199;28;20042;-70
2022/11/18 04:49:23;;;;;;;75.53;16.67;;;8.10;99.90;;;;;;4981692;28;20597;-72
2022/11/18 04:51:50;;;;;;;64.97;15.07;;;8.10;99.90;;;;;;4980093;28;20057;-71
2022/11/18 04:54:16;;;;;;;29.63;14.57;;;8.10;99.90;;;;;;4980718;28;20561;-71
2022/11/18 04:56:43;;;;;;;36.13;14.65;;;8.10;99.90;;;;;;4981375;28;20038;-71
2022/11/18 04:59:09;;;;;;;73.43;16.05;;;8.10;99.90;;;;;;4979205;28;20119;-72
2022/11/18 05:01:35;;;;;;;70.57;15.35;;;8.10;99.90;;;;;;4976416;28;20026;-70
2022/11/18 05:04:01;;;;;;;24.92;13.50;;;8.10;99.90;;;;;;4978233;28;20031;-71
2022/11/18 05:06:28;;;;;;;75.45;16.00;;;8.10;99.90;;;;;;4971205;28;20034;-71
2022/11/18 05:08:53;;;;;;;58.60;15.02;;;8.10;99.90;;;;;;4975183;28;20050;-70
2022/11/18 05:14:04;;;;;;;24.13;13.85;;;8.10;99.90;;;;;;4974357;28;20130;-70
2022/11/18 05:16:29;;;;;;;24.85;14.68;;;8.10;99.90;;;;;;4977977;28;20114;-71
2022/11/18 05:18:55;;;;;;;39.67;14.07;;;8.10;99.90;;;;;;4977746;28;20015;-70
2022/11/18 05:21:20;;;;;;;31.83;14.60;;;8.10;99.90;;;;;;4980976;28;20023;-72
2022/11/18 05:23:46;;;;;;;89.80;18.08;;;8.10;99.90;;;;;;4982183;28;20060;-70
2022/11/18 05:26:12;;;;;;;26.58;16.50;;;8.10;99.90;;;;;;4976763;28;20042;-70
2022/11/18 05:28:38;;;;;;;34.13;16.17;;;8.10;99.90;;;;;;4980485;28;20042;-71
2022/11/18 05:31:08;;;;;;;35.75;14.98;;;8.10;99.90;;;;;;4975984;28;20018;-74
2022/11/18 05:33:33;;;;;;;28.27;15.75;;;8.10;99.90;;;;;;4966744;28;20529;-72
2022/11/18 05:36:19;;;;;;;76.95;18.13;;;8.10;99.90;;;;;;4977793;28;20030;-70
2022/11/18 05:38:45;;;;;;;36.90;14.73;;;8.10;99.90;;;;;;4984082;28;20058;-69
2022/11/18 05:43:09;;;;;;;53.85;17.50;;;8.10;99.90;;;;;;4981136;28;20900;-72
2022/11/18 05:43:57;;;;;;;102.40;19.05;;;8.10;99.90;;;;;;4978204;28;20420;-73
2022/11/18 05:46:23;;;;;;;47.80;17.70;;;8.10;99.90;;;;;;4981314;28;20117;-73
2022/11/18 05:48:48;;;;;;;49.67;16.05;;;8.10;99.90;;;;;;4983173;28;20131;-73
2022/11/18 05:51:15;;;;;;;67.63;18.13;;;8.10;99.90;;;;;;4981036;28;20041;-70
2022/11/18 05:53:41;;;;;;;78.88;18.52;;;8.10;99.90;;;;;;4979052;28;20679;-70
2022/11/18 05:56:29;;;;;;;53.17;16.63;;;8.10;99.90;;;;;;4977461;28;20050;-70
2022/11/18 05:58:55;;;;;;;77.40;17.95;;;8.10;99.90;;;;;;4982349;28;20023;-73
2022/11/18 06:01:26;;;;;;;38.90;15.77;;;8.10;99.90;;;;;;4982872;28;20038;-70
2022/11/18 06:03:52;;;;;;;45.47;16.05;;;8.10;99.90;;;;;;4981519;28;20022;-71
2022/11/18 06:06:20;;;;;;;99.32;18.15;;;8.10;99.90;;;;;;4980189;28;20038;-70
2022/11/18 06:08:51;;;;;;;69.45;17.08;;;8.10;99.90;;;;;;4980749;28;20092;-71
2022/11/18 06:11:18;;;;;;;;;;;8.10;99.90;;;;;;4988183;28;20027;-70
2022/11/18 06:14:12;;;;;;;55.30;23.50;;;8.20;99.90;;;;;;4986225;28;19922;-70
2022/11/18 06:16:43;;;;;;;36.53;17.95;;;8.10;99.90;;;;;;4980886;28;20042;-72
2022/11/18 06:19:08;;;;;;;36.83;15.93;;;8.10;99.90;;;;;;4981206;28;20047;-71
2022/11/18 06:21:34;;;;;;;76.68;17.92;;;8.20;99.90;;;;;;4983979;28;20731;-72
2022/11/18 06:24:01;;;;;;;97.65;19.02;;;8.10;99.90;;;;;;4984232;28;20022;-74
2022/11/18 06:26:27;;;;;;;59.72;15.95;;;8.10;99.90;;;;;;4980764;28;20103;-71
2022/11/18 06:28:54;;;;;;;26.65;13.98;;;8.10;99.90;;;;;;4979376;28;20031;-70
2022/11/18 06:31:20;;;;;;;24.58;14.20;;;8.20;99.90;;;;;;4983792;28;20046;-69
2022/11/18 06:33:45;;;;;;;25.98;15.80;;;8.20;99.90;;;;;;4979896;28;20502;-70
2022/11/18 06:36:11;;;;;;;37.50;15.38;;;8.20;99.90;;;;;;4994813;28;20438;-70
2022/11/18 06:38:37;;;;;;;20.80;14.35;;;8.20;99.90;;;;;;4984665;28;20035;-74
2022/11/18 06:41:02;;;;;;;36.65;14.27;;;8.20;99.90;;;;;;4985001;28;20512;-73
2022/11/18 06:43:37;;;;;;;38.60;22.30;;;8.20;99.90;;;;;;4978630;28;20061;-71
2022/11/18 06:48:49;;;;;;;54.83;28.00;;;8.20;99.90;;;;;;4981674;28;20094;-70
2022/11/18 06:51:15;;;;;;;53.17;27.23;;;8.20;99.90;;;;;;4983534;28;20035;-70
2022/11/18 06:53:40;;;;;;;109.70;28.42;;;8.20;99.90;;;;;;4984433;28;20498;-70
2022/11/18 06:56:11;;;;;;;63.80;26.67;;;8.20;99.90;;;;;;4978130;28;20134;-71
2022/11/18 06:58:37;;;;;;;72.18;18.38;;;8.20;99.90;;;;;;4981300;28;20026;-70
2022/11/18 07:01:20;;;;;;;54.63;18.50;;;8.20;99.90;;;;;;4980250;28;20023;-71
2022/11/18 07:03:46;;;;;;;51.50;16.95;;;8.10;99.90;;;;;;4984470;28;20499;-73
2022/11/18 07:06:15;;;;;;;44.20;16.45;;;8.10;99.90;;;;;;4980376;28;20114;-72
2022/11/18 07:08:42;;;;;;;51.42;16.33;;;8.20;99.90;;;;;;4979409;28;20101;-70
2022/11/18 07:11:13;;;;;;;57.38;16.63;;;8.20;99.90;;;;;;4982171;28;20030;-70
2022/11/18 07:13:38;;;;;;;51.45;17.15;;;8.20;99.90;;;;;;4982367;28;20031;-71
2022/11/18 07:16:06;;;;;;;33.95;16.55;;;8.20;99.90;;;;;;4980296;28;20085;-74
2022/11/18 07:18:33;;;;;;;50.00;17.00;;;8.10;99.90;;;;;;4979906;28;20141;-70
2022/11/18 07:21:04;;;;;;;39.55;17.08;;;8.10;99.90;;;;;;4981392;28;20061;-71
2022/11/18 07:23:31;;;;;;;46.10;19.55;;;8.10;99.90;;;;;;4996716;28;20563;-70
2022/11/18 07:25:57;;;;;;;63.22;21.00;;;8.10;99.90;;;;;;4983315;28;20039;-74
2022/11/18 07:28:22;;;;;;;64.03;20.58;;;8.00;99.90;;;;;;4985195;28;20096;-70
2022/11/18 07:30:48;;;;;;;39.78;18.85;;;8.00;99.90;;;;;;4980932;28;20042;-70
2022/11/18 07:33:14;;;;;;;67.55;22.52;;;8.10;99.90;;;;;;4981053;28;20499;-70
2022/11/18 07:35:39;;;;;;;44.63;21.02;;;8.10;99.90;;;;;;4980606;28;20034;-73
2022/11/18 07:38:05;;;;;;;67.75;21.90;;;8.10;99.90;;;;;;4983716;28;20026;-76
2022/11/18 07:40:30;;;;;;;44.63;20.60;;;8.10;99.90;;;;;;4980658;28;20716;-72
2022/11/18 07:42:56;;;;;;;49.67;21.30;;;8.20;99.90;;;;;;4982997;28;20015;-73
2022/11/18 07:45:22;;;;;;;36.33;19.40;;;8.10;99.90;;;;;;4982129;28;20485;-72
2022/11/18 07:47:48;;;;;;;110.63;25.23;;;8.10;99.90;;;;;;4980522;28;20085;-73
2022/11/18 07:50:14;;;;;;;59.53;20.25;;;8.20;99.90;;;;;;4980934;28;20027;-74
2022/11/18 07:52:40;;;;;;;32.72;19.52;;;8.20;99.90;;;;;;4977601;28;20061;-71
2022/11/18 07:55:06;;;;;;;69.93;20.13;;;8.20;99.90;;;;;;4982195;28;20058;-72
2022/11/18 07:57:32;;;;;;;106.20;22.55;;;8.30;99.90;;;;;;4981277;28;20034;-72
2022/11/18 07:59:57;;;;;;;52.95;19.48;;;8.30;99.90;;;;;;4978973;28;20034;-73
2022/11/18 08:02:23;;;;;;;97.65;23.02;;;8.30;99.90;;;;;;4985531;28;20108;-73
2022/11/18 08:04:48;;;;;;;116.20;22.20;;;8.40;99.90;;;;;;4981138;28;20078;-74
2022/11/18 08:07:14;;;;;;;140.20;23.77;;;8.40;99.90;;;;;;4979343;28;20560;-70
2022/11/18 08:09:40;;;;;;;40.65;18.85;;;8.50;99.90;;;;;;4981989;28;20030;-71
2022/11/18 08:12:05;;;;;;;38.88;18.10;;;8.50;99.90;;;;;;4985077;28;20026;-72
2022/11/18 08:14:31;;;;;;;54.13;19.73;;;8.50;99.90;;;;;;4977806;28;20035;-72
2022/11/18 08:16:57;;;;;;;67.35;21.77;;;8.50;99.90;;;;;;4986269;28;20537;-76
2022/11/18 08:19:22;;;;;;;38.95;18.17;;;8.60;99.90;;;;;;4987597;28;20522;-72
2022/11/18 08:21:48;;;;;;;122.07;21.77;;;8.60;99.90;;;;;;4977504;28;20121;-72
2022/11/18 08:24:14;;;;;;;42.50;17.90;;;8.70;99.90;;;;;;4979706;28;20039;-72
2022/11/18 08:26:39;;;;;;;115.82;20.77;;;8.70;99.90;;;;;;4977037;28;20125;-72
2022/11/18 08:29:05;;;;;;;50.30;17.05;;;8.80;99.90;;;;;;4977610;28;20422;-73
2022/11/18 08:31:31;;;;;;;88.82;19.52;;;8.80;99.90;;;;;;4981286;28;20077;-73
2022/11/18 08:34:05;;;;;;;26.02;17.60;;;8.80;99.90;;;;;;4979995;28;20030;-72
2022/11/18 08:36:34;;;;;;;41.30;16.88;;;8.80;99.90;;;;;;4969555;28;20500;-71
2022/11/18 08:39:00;;;;;;;31.85;17.30;;;8.80;99.90;;;;;;4977992;28;20026;-72
2022/11/18 08:41:52;;;;;;;38.03;17.00;;;8.80;99.90;;;;;;4980507;28;20050;-75
2022/11/18 08:44:18;;;;;;;35.05;18.02;;;8.70;99.90;;;;;;4979849;28;20034;-75
2022/11/18 08:46:44;;;;;;;25.52;16.95;;;8.70;99.90;;;;;;4977032;28;20046;-72
2022/11/18 08:49:10;;;;;;;34.63;18.33;;;8.60;99.90;;;;;;4975233;28;20038;-71
2022/11/18 08:51:36;;;;;;;43.78;19.15;;;8.60;99.90;;;;;;4982004;28;20029;-71
2022/11/18 08:54:02;;;;;;;42.45;19.50;;;8.60;99.90;;;;;;4982330;28;20117;-71
2022/11/18 08:56:27;;;;;;;42.92;19.65;;;8.50;99.90;;;;;;4977732;28;20031;-71
2022/11/18 08:58:53;;;;;;;39.42;19.90;;;8.60;99.90;;;;;;4976940;28;20101;-74
2022/11/18 09:01:19;;;;;;;33.45;18.38;;;8.60;99.90;;;;;;4981619;28;20023;-73
2022/11/18 09:03:46;;;;;;;32.08;18.75;;;8.60;99.90;;;;;;4982696;28;20029;-73
2022/11/18 09:06:17;;;;;;;35.35;18.70;;;8.60;99.90;;;;;;4962302;28;20027;-71
2022/11/18 09:08:43;;;;;;;39.22;17.48;;;8.70;99.90;;;;;;4977441;28;20494;-71
2022/11/18 09:11:20;;;;;;;27.02;17.02;;;8.70;99.90;;;;;;4976129;28;20076;-71
2022/11/18 09:13:46;;;;;;;20.73;15.90;;;8.80;99.90;;;;;;4976206;28;20042;-71
2022/11/18 09:16:12;;;;;;;37.75;17.17;;;8.90;99.90;;;;;;4975325;28;20034;-71
2022/11/18 09:18:38;;;;;;;24.98;16.58;;;9.00;99.90;;;;;;4977773;28;20030;-71
2022/11/18 09:21:06;;;;;;;32.80;16.73;;;8.90;99.90;;;;;;4974431;28;20421;-74
2022/11/18 09:23:33;;;;;;;24.17;16.08;;;9.00;99.90;;;;;;4973783;28;20093;-72
2022/11/18 09:26:08;;;;;;;23.85;17.15;;;9.00;99.90;;;;;;4973823;28;20034;-71
2022/11/18 09:28:34;;;;;;;30.05;16.77;;;9.00;99.90;;;;;;4973956;28;20030;-72
2022/11/18 09:31:05;;;;;;;24.83;16.52;;;9.10;99.90;;;;;;4975451;28;20027;-74
2022/11/18 09:33:30;;;;;;;27.33;18.27;;;9.00;99.90;;;;;;4972276;28;20505;-74
2022/11/18 09:35:56;;;;;;;22.02;15.43;;;9.00;99.90;;;;;;4974936;28;20031;-73
2022/11/18 09:38:22;;;;;;;20.30;14.50;;;9.00;99.90;;;;;;4974307;28;20050;-73
2022/11/18 09:41:09;;;;;;;22.92;14.75;;;9.00;99.90;;;;;;4972384;28;20030;-71
2022/11/18 09:43:53;;;;;;;15.45;13.32;;;8.90;99.90;;;;;;4977496;28;20117;-74
2022/11/18 09:46:27;;;;;;;16.05;13.45;;;8.90;99.90;;;;;;4971372;28;20031;-71
2022/11/18 09:49:13;;;;;;;17.00;12.80;;;9.00;99.90;;;;;;4977728;28;20030;-71
2022/11/18 09:51:47;;;;;;;14.95;9.57;;;9.00;99.90;;;;;;4990379;28;20045;-70
2022/11/18 09:54:20;;;;;;;15.93;10.60;;;9.00;99.90;;;;;;4993401;28;20505;-74
2022/11/18 09:56:47;;;;;;;17.58;11.27;;;9.00;99.90;;;;;;4990651;28;20486;-71
2022/11/18 09:59:14;;;;;;;21.38;13.23;;;9.00;99.90;;;;;;4996042;28;20117;-71
2022/11/18 10:01:41;;;;;;;27.77;20.50;;;9.10;99.90;;;;;;4997806;28;20140;-72
2022/11/18 10:04:14;;;;;;;22.83;13.18;;;9.10;99.90;;;;;;4996599;28;20081;-71
2022/11/18 10:06:40;;;;;;;19.25;12.95;;;9.10;99.90;;;;;;4991452;28;20050;-73
2022/11/18 10:09:14;;;;;;;17.17;12.77;;;9.20;99.90;;;;;;4995725;28;20536;-71
2022/11/18 10:12:18;;;;;;;18.75;13.25;;;9.20;99.90;;;;;;4996199;28;20030;-70
2022/11/18 10:15:02;;;;;;;19.63;13.13;;;9.20;99.90;;;;;;4993180;28;20074;-70
2022/11/18 10:18:01;;;;;;;18.02;11.32;;;9.10;99.90;;;;;;4994056;28;20113;-74
2022/11/18 10:20:59;;;;;;;26.40;14.88;;;9.10;99.90;;;;;;4995238;28;20037;-72
2022/11/18 10:23:42;;;;;;;22.67;12.98;;;9.00;99.90;;;;;;5002463;28;20035;-70
2022/11/18 10:26:08;;;;;;;26.05;13.48;;;9.00;99.90;;;;;;4997834;28;20045;-71
2022/11/18 10:28:34;;;;;;;26.23;13.38;;;9.00;99.90;;;;;;5002319;28;20033;-72
2022/11/18 10:31:08;;;;;;;32.45;13.10;;;9.00;99.90;;;;;;5003442;28;20033;-71
2022/11/18 10:33:34;;;;;;;20.83;11.48;;;8.90;99.90;;;;;;4999653;28;20096;-71
2022/11/18 10:36:16;;;;;;;23.83;12.25;;;8.90;99.90;;;;;;4998581;28;20045;-71
2022/11/18 10:38:42;;;;;;;30.90;13.57;;;9.00;99.90;;;;;;4998146;28;20600;-71
2022/11/18 10:41:12;;;;;;;25.63;12.35;;;9.00;99.90;;;;;;4997098;28;20042;-71
2022/11/18 10:43:43;;;;;;;19.65;12.23;;;9.10;99.90;;;;;;4993049;28;20117;-71
2022/11/18 10:46:27;;;;;;;19.98;11.85;;;9.10;99.90;;;;;;5003500;28;20489;-70
2022/11/18 10:49:15;;;;;;;19.27;10.70;;;9.10;99.90;;;;;;5002868;28;20481;-71
2022/11/18 10:52:00;;;;;;;19.83;10.82;;;9.20;99.90;;;;;;4999395;28;20037;-71
2022/11/18 10:54:26;;;;;;;21.63;12.65;;;9.30;99.90;;;;;;5001285;28;20031;-73
2022/11/18 10:56:53;;;;;;;19.63;14.13;;;9.40;99.90;;;;;;4995013;28;20033;-70
2022/11/18 10:59:38;;;;;;;25.75;15.05;;;9.40;99.90;;;;;;5002447;28;20026;-71
2022/11/18 11:02:32;;;;;;;17.73;13.07;;;9.30;99.90;;;;;;4994456;28;20029;-74
2022/11/18 11:05:14;;;;;;;21.52;13.63;;;9.30;99.90;;;;;;4997420;28;20560;-72
2022/11/18 11:07:39;;;;;;;17.58;11.40;;;9.20;99.90;;;;;;4997907;28;20018;-71
2022/11/18 11:10:13;;;;;;;20.17;13.43;;;9.10;99.90;;;;;;4998864;28;20024;-72
2022/11/18 11:12:46;;;;;;;23.00;14.15;;;9.00;99.90;;;;;;4999351;28;20061;-70
2022/11/18 11:15:17;;;;;;;23.58;13.35;;;9.10;99.90;;;;;;5000763;28;20144;-71
2022/11/18 11:18:40;;;;;;;27.70;14.77;;;9.10;99.90;;;;;;5000996;28;20038;-71
2022/11/18 11:20:38;;;;;;;23.17;13.80;;;9.10;99.90;;;;;;4994599;28;20087;-71
2022/11/18 11:23:09;;;;;;;23.95;14.25;;;9.10;99.90;;;;;;4997476;28;20042;-71
2022/11/18 11:26:01;;;;;;;26.83;15.15;;;9.00;99.90;;;;;;4998403;28;20446;-72
2022/11/18 11:28:30;;;;;;;31.80;15.23;;;9.00;99.90;;;;;;4994896;28;20486;-75
2022/11/18 11:31:14;;;;;;;27.63;14.07;;;9.00;99.90;;;;;;4999942;28;20342;-71
2022/11/18 11:34:01;;;;;;;27.42;14.55;;;9.00;99.90;;;;;;4998131;28;20118;-73
2022/11/18 11:36:27;;;;;;;31.95;15.40;;;9.10;99.90;;;;;;4994072;28;20033;-70
2022/11/18 11:39:10;;;;;;;27.10;14.38;;;9.20;99.90;;;;;;4996877;28;20444;-70
2022/11/18 11:41:43;;;;;;;26.02;15.68;;;9.20;99.90;;;;;;5002020;28;20061;-71
2022/11/18 11:44:28;;;;;;;22.67;14.35;;;9.40;99.90;;;;;;4996718;28;20049;-74
2022/11/18 11:49:56;;;;;;;19.80;13.35;;;9.40;99.90;;;;;;4996038;28;20128;-73
2022/11/18 11:53:01;;;;;;;28.98;14.77;;;9.40;99.90;;;;;;4998137;28;20034;-71
2022/11/18 11:55:49;;;;;;;25.73;15.13;;;9.30;99.90;;;;;;4996937;28;20030;-70
2022/11/18 11:58:27;;;;;;;24.05;14.85;;;9.20;99.90;;;;;;5002184;28;20026;-71
2022/11/18 12:01:26;;;;;;;26.15;15.20;;;9.20;99.90;;;;;;4998719;28;20029;-72
2022/11/18 12:04:16;;;;;;;27.17;16.27;;;9.10;99.90;;;;;;4989454;28;20116;-71
2022/11/18 12:06:46;;;;;;;33.22;16.48;;;9.10;99.90;;;;;;4996194;28;20136;-71
2022/11/18 12:09:30;;;;;;;29.25;16.00;;;9.20;99.90;;;;;;5004409;28;20116;-71
2022/11/18 12:12:33;;;;;;;25.10;15.43;;;9.10;99.90;;;;;;5002304;28;20022;-72
2022/11/18 12:15:19;;;;;;;28.17;16.63;;;9.20;99.90;;;;;;5001363;28;20091;-75
2022/11/18 12:17:53;;;;;;;30.35;17.50;;;9.10;99.90;;;;;;4993362;28;20465;-72
2022/11/18 12:20:35;;;;;;;34.58;17.80;;;9.10;99.90;;;;;;5005896;28;20026;-72
2022/11/18 12:23:20;;;;;;;23.13;15.75;;;9.10;99.90;;;;;;4991105;28;20034;-72
2022/11/18 12:26:10;;;;;;;25.80;15.32;;;9.00;99.90;;;;;;4993191;28;20043;-73
2022/11/18 12:28:40;;;;;;;28.08;13.02;;;9.00;99.90;;;;;;4997805;28;20030;-76
2022/11/18 12:31:17;;;;;;;11.10;8.88;;;9.00;99.90;;;;;;4999666;28;20026;-73
2022/11/18 12:33:48;;;;;;;14.18;8.48;;;8.90;99.90;;;;;;4998056;28;20018;-73
2022/11/18 12:36:29;;;;;;;13.30;9.52;;;8.70;99.90;;;;;;4997730;28;20026;-74
2022/11/18 12:38:55;;;;;;;11.30;8.32;;;8.60;99.90;;;;;;5000700;28;20026;-75
2022/11/18 12:44:26;;;;;;;12.50;7.05;;;8.40;99.90;;;;;;4995046;28;20045;-72
2022/11/18 12:46:57;;;;;;;10.77;5.97;;;8.40;99.90;;;;;;4998209;28;20041;-72
2022/11/18 12:49:23;;;;;;;8.73;7.20;;;8.40;99.90;;;;;;4995596;28;20395;-72
2022/11/18 12:51:50;;;;;;;8.95;6.20;;;8.40;99.90;;;;;;5000540;28;20018;-74
2022/11/18 12:54:30;;;;;;;6.15;5.55;;;8.40;99.90;;;;;;4996684;28;20057;-72
2022/11/18 12:57:18;;;;;;;5.53;5.00;;;8.30;99.90;;;;;;4995876;28;20027;-74
2022/11/18 12:59:43;;;;;;;5.68;5.18;;;8.40;99.90;;;;;;4996999;28;20038;-72
2022/11/18 13:02:18;;;;;;;6.07;5.47;;;8.30;99.90;;;;;;4991555;28;20085;-72
2022/11/18 13:04:43;;;;;;;6.22;5.63;;;8.30;99.90;;;;;;4997417;28;20469;-73
2022/11/18 13:09:56;;;;;;;6.30;5.18;;;8.30;99.90;;;;;;4998862;28;20389;-71
2022/11/18 13:12:25;;;;;;;5.60;5.10;;;8.30;99.90;;;;;;4996521;28;20048;-74
2022/11/18 13:17:57;;;;;;;4.20;3.80;;;8.30;99.90;;;;;;4995911;28;20108;-71
2022/11/18 13:20:37;;;;;;;4.18;3.78;;;8.30;99.90;;;;;;4995897;28;20038;-73
2022/11/18 13:26:00;;;;;;;3.83;3.53;;;8.20;99.90;;;;;;4995942;28;20400;-71